sensor_id;sensor_type;location;lat;lon;timestamp;pressure;altitude;pressure_sealevel;temperature
70533;BMP180;58088;51.186;17.130;2023-03-13T00:01:52;99592.60;;;8.60
70533;BMP180;58088;51.186;17.130;2023-03-13T00:04:18;99593.40;;;8.60
70533;BMP180;58088;51.186;17.130;2023-03-13T00:06:45;99596.20;;;8.70
70533;BMP180;58088;51.186;17.130;2023-03-13T00:09:15;99595.80;;;8.70
70533;BMP180;58088;51.186;17.130;2023-03-13T00:11:43;99593.60;;;8.78
70533;BMP180;58088;51.186;17.130;2023-03-13T00:14:11;99589.20;;;8.80
70533;BMP180;58088;51.186;17.130;2023-03-13T00:16:37;99591.00;;;8.80
70533;BMP180;58088;51.186;17.130;2023-03-13T00:19:08;99590.40;;;8.80
70533;BMP180;58088;51.186;17.130;2023-03-13T00:21:35;99592.20;;;8.80
70533;BMP180;58088;51.186;17.130;2023-03-13T00:24:03;99592.40;;;8.88
70533;BMP180;58088;51.186;17.130;2023-03-13T00:26:30;99592.80;;;8.90
70533;BMP180;58088;51.186;17.130;2023-03-13T00:28:56;99598.20;;;8.90
70533;BMP180;58088;51.186;17.130;2023-03-13T00:31:27;99595.80;;;8.98
70533;BMP180;58088;51.186;17.130;2023-03-13T00:34:01;99588.40;;;9.00
70533;BMP180;58088;51.186;17.130;2023-03-13T00:36:31;99591.40;;;9.02
70533;BMP180;58088;51.186;17.130;2023-03-13T00:38:58;99588.00;;;9.10
70533;BMP180;58088;51.186;17.130;2023-03-13T00:41:29;99582.40;;;9.10
70533;BMP180;58088;51.186;17.130;2023-03-13T00:43:57;99588.00;;;9.10
70533;BMP180;58088;51.186;17.130;2023-03-13T00:46:26;99596.00;;;9.12
70533;BMP180;58088;51.186;17.130;2023-03-13T00:48:53;99586.60;;;9.20
70533;BMP180;58088;51.186;17.130;2023-03-13T00:51:21;99585.80;;;9.20
70533;BMP180;58088;51.186;17.130;2023-03-13T00:53:49;99585.80;;;9.18
70533;BMP180;58088;51.186;17.130;2023-03-13T00:56:18;99585.80;;;9.20
70533;BMP180;58088;51.186;17.130;2023-03-13T00:58:46;99591.60;;;9.12
70533;BMP180;58088;51.186;17.130;2023-03-13T01:01:26;99585.00;;;9.14
70533;BMP180;58088;51.186;17.130;2023-03-13T01:04:01;99590.80;;;9.10
70533;BMP180;58088;51.186;17.130;2023-03-13T01:06:32;99590.60;;;9.20
70533;BMP180;58088;51.186;17.130;2023-03-13T01:09:00;99588.60;;;9.20
70533;BMP180;58088;51.186;17.130;2023-03-13T01:11:30;99580.20;;;9.20
70533;BMP180;58088;51.186;17.130;2023-03-13T01:14:00;99586.00;;;9.20
70533;BMP180;58088;51.186;17.130;2023-03-13T01:16:29;99586.00;;;9.20
70533;BMP180;58088;51.186;17.130;2023-03-13T01:19:00;99590.60;;;9.20
70533;BMP180;58088;51.186;17.130;2023-03-13T01:21:28;99580.40;;;9.20
70533;BMP180;58088;51.186;17.130;2023-03-13T01:23:55;99585.00;;;9.22
70533;BMP180;58088;51.186;17.130;2023-03-13T01:26:23;99594.00;;;9.20
70533;BMP180;58088;51.186;17.130;2023-03-13T01:28:50;99589.60;;;9.22
70533;BMP180;58088;51.186;17.130;2023-03-13T01:31:24;99581.80;;;9.20
70533;BMP180;58088;51.186;17.130;2023-03-13T01:33:55;99588.20;;;9.22
70533;BMP180;58088;51.186;17.130;2023-03-13T01:36:23;99583.60;;;9.20
70533;BMP180;58088;51.186;17.130;2023-03-13T01:38:53;99574.40;;;9.30
70533;BMP180;58088;51.186;17.130;2023-03-13T01:41:22;99582.40;;;9.30
70533;BMP180;58088;51.186;17.130;2023-03-13T01:43:50;99584.60;;;9.30
70533;BMP180;58088;51.186;17.130;2023-03-13T01:46:23;99579.20;;;9.30
70533;BMP180;58088;51.186;17.130;2023-03-13T01:49:12;99579.00;;;9.30
70533;BMP180;58088;51.186;17.130;2023-03-13T01:52:03;99584.00;;;9.30
70533;BMP180;58088;51.186;17.130;2023-03-13T01:54:48;99580.80;;;9.30
70533;BMP180;58088;51.186;17.130;2023-03-13T01:57:30;99589.00;;;9.30
70533;BMP180;58088;51.186;17.130;2023-03-13T02:00:09;99589.80;;;9.30
70533;BMP180;58088;51.186;17.130;2023-03-13T02:02:51;99584.40;;;9.30
70533;BMP180;58088;51.186;17.130;2023-03-13T02:05:21;99586.80;;;9.30
70533;BMP180;58088;51.186;17.130;2023-03-13T02:08:13;99585.20;;;9.30
70533;BMP180;58088;51.186;17.130;2023-03-13T02:10:52;99590.20;;;9.30
70533;BMP180;58088;51.186;17.130;2023-03-13T02:13:21;99593.60;;;9.30
70533;BMP180;58088;51.186;17.130;2023-03-13T02:15:48;99592.20;;;9.30
70533;BMP180;58088;51.186;17.130;2023-03-13T02:18:17;99599.60;;;9.30
70533;BMP180;58088;51.186;17.130;2023-03-13T02:20:46;99597.60;;;9.30
70533;BMP180;58088;51.186;17.130;2023-03-13T02:23:26;99598.40;;;9.30
70533;BMP180;58088;51.186;17.130;2023-03-13T02:25:55;99603.60;;;9.30
70533;BMP180;58088;51.186;17.130;2023-03-13T02:28:33;99614.00;;;9.30
70533;BMP180;58088;51.186;17.130;2023-03-13T02:31:00;99614.20;;;9.30
70533;BMP180;58088;51.186;17.130;2023-03-13T02:33:35;99606.20;;;9.32
70533;BMP180;58088;51.186;17.130;2023-03-13T02:36:05;99604.60;;;9.40
70533;BMP180;58088;51.186;17.130;2023-03-13T02:38:38;99597.80;;;9.40
70533;BMP180;58088;51.186;17.130;2023-03-13T02:41:06;99600.20;;;9.40
70533;BMP180;58088;51.186;17.130;2023-03-13T02:43:36;99594.80;;;9.40
70533;BMP180;58088;51.186;17.130;2023-03-13T02:46:12;99599.00;;;9.40
70533;BMP180;58088;51.186;17.130;2023-03-13T02:48:48;99596.40;;;9.50
70533;BMP180;58088;51.186;17.130;2023-03-13T02:51:29;99594.40;;;9.54
70533;BMP180;58088;51.186;17.130;2023-03-13T02:54:06;99593.80;;;9.60
70533;BMP180;58088;51.186;17.130;2023-03-13T02:56:36;99595.00;;;9.60
70533;BMP180;58088;51.186;17.130;2023-03-13T02:59:04;99596.60;;;9.68
70533;BMP180;58088;51.186;17.130;2023-03-13T03:01:30;99592.40;;;9.70
70533;BMP180;58088;51.186;17.130;2023-03-13T03:03:57;99591.80;;;9.70
70533;BMP180;58088;51.186;17.130;2023-03-13T03:06:24;99581.60;;;9.70
70533;BMP180;58088;51.186;17.130;2023-03-13T03:08:51;99579.00;;;9.70
70533;BMP180;58088;51.186;17.130;2023-03-13T03:11:17;99582.60;;;9.70
70533;BMP180;58088;51.186;17.130;2023-03-13T03:13:46;99578.60;;;9.70
70533;BMP180;58088;51.186;17.130;2023-03-13T03:16:14;99587.00;;;9.70
70533;BMP180;58088;51.186;17.130;2023-03-13T03:18:43;99577.00;;;9.70
70533;BMP180;58088;51.186;17.130;2023-03-13T03:21:10;99571.60;;;9.70
70533;BMP180;58088;51.186;17.130;2023-03-13T03:23:38;99584.40;;;9.70
70533;BMP180;58088;51.186;17.130;2023-03-13T03:26:06;99582.20;;;9.70
70533;BMP180;58088;51.186;17.130;2023-03-13T03:28:33;99577.80;;;9.70
70533;BMP180;58088;51.186;17.130;2023-03-13T03:31:10;99577.20;;;9.70
70533;BMP180;58088;51.186;17.130;2023-03-13T03:33:38;99575.20;;;9.72
70533;BMP180;58088;51.186;17.130;2023-03-13T03:36:12;99571.60;;;9.80
70533;BMP180;58088;51.186;17.130;2023-03-13T03:38:39;99568.00;;;9.80
70533;BMP180;58088;51.186;17.130;2023-03-13T03:41:09;99568.20;;;9.80
70533;BMP180;58088;51.186;17.130;2023-03-13T03:43:36;99573.40;;;9.80
70533;BMP180;58088;51.186;17.130;2023-03-13T03:46:04;99579.20;;;9.80
70533;BMP180;58088;51.186;17.130;2023-03-13T03:48:31;99574.20;;;9.80
70533;BMP180;58088;51.186;17.130;2023-03-13T03:50:58;99579.80;;;9.80
70533;BMP180;58088;51.186;17.130;2023-03-13T03:53:24;99570.00;;;9.80
70533;BMP180;58088;51.186;17.130;2023-03-13T03:55:51;99577.40;;;9.90
70533;BMP180;58088;51.186;17.130;2023-03-13T03:58:17;99575.80;;;9.90
70533;BMP180;58088;51.186;17.130;2023-03-13T04:00:58;99566.40;;;9.90
70533;BMP180;58088;51.186;17.130;2023-03-13T04:03:26;99574.20;;;9.90
70533;BMP180;58088;51.186;17.130;2023-03-13T04:05:52;99563.80;;;9.90
70533;BMP180;58088;51.186;17.130;2023-03-13T04:08:19;99561.20;;;9.90
70533;BMP180;58088;51.186;17.130;2023-03-13T04:10:46;99567.40;;;9.90
70533;BMP180;58088;51.186;17.130;2023-03-13T04:13:13;99563.40;;;9.90
70533;BMP180;58088;51.186;17.130;2023-03-13T04:15:40;99551.40;;;9.90
70533;BMP180;58088;51.186;17.130;2023-03-13T04:18:08;99554.40;;;9.90
70533;BMP180;58088;51.186;17.130;2023-03-13T04:20:35;99554.80;;;9.90
70533;BMP180;58088;51.186;17.130;2023-03-13T04:23:02;99541.60;;;9.86
70533;BMP180;58088;51.186;17.130;2023-03-13T04:25:28;99536.40;;;9.80
70533;BMP180;58088;51.186;17.130;2023-03-13T04:27:57;99539.80;;;9.80
70533;BMP180;58088;51.186;17.130;2023-03-13T04:30:27;99534.40;;;9.88
70533;BMP180;58088;51.186;17.130;2023-03-13T04:33:20;99528.00;;;9.90
70533;BMP180;58088;51.186;17.130;2023-03-13T04:36:07;99523.60;;;9.90
70533;BMP180;58088;51.186;17.130;2023-03-13T04:39:06;99517.60;;;9.90
70533;BMP180;58088;51.186;17.130;2023-03-13T04:41:55;99508.20;;;9.80
70533;BMP180;58088;51.186;17.130;2023-03-13T04:44:39;99501.80;;;9.70
70533;BMP180;58088;51.186;17.130;2023-03-13T04:47:19;99501.40;;;9.76
70533;BMP180;58088;51.186;17.130;2023-03-13T04:50:06;99502.80;;;9.80
70533;BMP180;58088;51.186;17.130;2023-03-13T04:52:59;99499.80;;;9.80
70533;BMP180;58088;51.186;17.130;2023-03-13T04:55:44;99499.60;;;9.70
70533;BMP180;58088;51.186;17.130;2023-03-13T04:58:39;99495.00;;;9.72
70533;BMP180;58088;51.186;17.130;2023-03-13T05:01:24;99495.80;;;9.70
70533;BMP180;58088;51.186;17.130;2023-03-13T05:03:51;99490.80;;;9.70
70533;BMP180;58088;51.186;17.130;2023-03-13T05:06:53;99488.00;;;9.70
70533;BMP180;58088;51.186;17.130;2023-03-13T05:09:50;99485.00;;;9.70
70533;BMP180;58088;51.186;17.130;2023-03-13T05:12:37;99487.60;;;9.70
70533;BMP180;58088;51.186;17.130;2023-03-13T05:15:28;99476.40;;;9.70
70533;BMP180;58088;51.186;17.130;2023-03-13T05:18:11;99479.20;;;9.78
70533;BMP180;58088;51.186;17.130;2023-03-13T05:21:07;99480.80;;;9.80
70533;BMP180;58088;51.186;17.130;2023-03-13T05:23:52;99480.20;;;9.80
70533;BMP180;58088;51.186;17.130;2023-03-13T05:26:57;99474.20;;;9.80
70533;BMP180;58088;51.186;17.130;2023-03-13T05:29:32;99467.60;;;9.80
70533;BMP180;58088;51.186;17.130;2023-03-13T05:32:19;99465.20;;;9.80
70533;BMP180;58088;51.186;17.130;2023-03-13T05:35:06;99463.00;;;9.90
70533;BMP180;58088;51.186;17.130;2023-03-13T05:38:08;99462.80;;;9.90
70533;BMP180;58088;51.186;17.130;2023-03-13T05:40:57;99461.80;;;9.96
70533;BMP180;58088;51.186;17.130;2023-03-13T05:43:47;99461.80;;;10.00
70533;BMP180;58088;51.186;17.130;2023-03-13T05:46:45;99461.60;;;10.00
70533;BMP180;58088;51.186;17.130;2023-03-13T05:49:34;99457.80;;;10.10
70533;BMP180;58088;51.186;17.130;2023-03-13T05:52:06;99453.80;;;10.10
70533;BMP180;58088;51.186;17.130;2023-03-13T05:54:56;99459.00;;;10.10
70533;BMP180;58088;51.186;17.130;2023-03-13T05:57:51;99457.00;;;10.10
70533;BMP180;58088;51.186;17.130;2023-03-13T06:00:37;99453.00;;;10.20
70533;BMP180;58088;51.186;17.130;2023-03-13T06:03:22;99454.20;;;10.20
70533;BMP180;58088;51.186;17.130;2023-03-13T06:05:57;99449.80;;;10.20
70533;BMP180;58088;51.186;17.130;2023-03-13T06:08:51;99446.80;;;10.30
70533;BMP180;58088;51.186;17.130;2023-03-13T06:11:19;99447.60;;;10.30
70533;BMP180;58088;51.186;17.130;2023-03-13T06:13:45;99450.20;;;10.30
70533;BMP180;58088;51.186;17.130;2023-03-13T06:16:37;99449.60;;;10.30
70533;BMP180;58088;51.186;17.130;2023-03-13T06:19:20;99446.00;;;10.40
70533;BMP180;58088;51.186;17.130;2023-03-13T06:21:47;99443.00;;;10.40
70533;BMP180;58088;51.186;17.130;2023-03-13T06:24:13;99436.40;;;10.50
70533;BMP180;58088;51.186;17.130;2023-03-13T06:26:39;99436.00;;;10.50
70533;BMP180;58088;51.186;17.130;2023-03-13T06:29:06;99431.00;;;10.56
70533;BMP180;58088;51.186;17.130;2023-03-13T06:31:32;99431.60;;;10.60
70533;BMP180;58088;51.186;17.130;2023-03-13T06:33:58;99432.20;;;10.70
70533;BMP180;58088;51.186;17.130;2023-03-13T06:36:25;99425.20;;;10.70
70533;BMP180;58088;51.186;17.130;2023-03-13T06:38:51;99426.80;;;10.80
70533;BMP180;58088;51.186;17.130;2023-03-13T06:41:18;99424.80;;;10.80
70533;BMP180;58088;51.186;17.130;2023-03-13T06:43:44;99424.60;;;10.90
70533;BMP180;58088;51.186;17.130;2023-03-13T06:46:20;99418.00;;;10.90
70533;BMP180;58088;51.186;17.130;2023-03-13T06:48:48;99408.40;;;11.00
70533;BMP180;58088;51.186;17.130;2023-03-13T06:51:17;99411.00;;;11.10
70533;BMP180;58088;51.186;17.130;2023-03-13T06:53:45;99417.20;;;11.20
70533;BMP180;58088;51.186;17.130;2023-03-13T06:56:12;99410.40;;;11.30
70533;BMP180;58088;51.186;17.130;2023-03-13T06:58:39;99409.20;;;11.40
70533;BMP180;58088;51.186;17.130;2023-03-13T07:01:14;99409.40;;;11.50
70533;BMP180;58088;51.186;17.130;2023-03-13T07:03:41;99407.20;;;11.60
70533;BMP180;58088;51.186;17.130;2023-03-13T07:06:08;99410.20;;;11.70
70533;BMP180;58088;51.186;17.130;2023-03-13T07:08:36;99409.60;;;11.80
70533;BMP180;58088;51.186;17.130;2023-03-13T07:11:06;99406.00;;;11.90
70533;BMP180;58088;51.186;17.130;2023-03-13T07:13:33;99403.60;;;12.00
70533;BMP180;58088;51.186;17.130;2023-03-13T07:16:02;99395.60;;;12.20
70533;BMP180;58088;51.186;17.130;2023-03-13T07:18:30;99381.80;;;12.50
70533;BMP180;58088;51.186;17.130;2023-03-13T07:20:59;99381.40;;;12.78
70533;BMP180;58088;51.186;17.130;2023-03-13T07:23:28;99380.40;;;13.00
70533;BMP180;58088;51.186;17.130;2023-03-13T07:25:57;99377.60;;;13.20
70533;BMP180;58088;51.186;17.130;2023-03-13T07:28:26;99373.20;;;13.50
70533;BMP180;58088;51.186;17.130;2023-03-13T07:30:52;99376.80;;;13.80
70533;BMP180;58088;51.186;17.130;2023-03-13T07:33:19;99376.00;;;14.02
70533;BMP180;58088;51.186;17.130;2023-03-13T07:35:50;99369.00;;;14.20
70533;BMP180;58088;51.186;17.130;2023-03-13T07:38:19;99356.80;;;14.40
70533;BMP180;58088;51.186;17.130;2023-03-13T07:40:49;99350.40;;;14.54
70533;BMP180;58088;51.186;17.130;2023-03-13T07:43:16;99352.80;;;14.70
70533;BMP180;58088;51.186;17.130;2023-03-13T07:45:55;99355.00;;;14.90
70533;BMP180;58088;51.186;17.130;2023-03-13T07:48:29;99344.40;;;15.24
70533;BMP180;58088;51.186;17.130;2023-03-13T07:50:56;99342.40;;;15.40
70533;BMP180;58088;51.186;17.130;2023-03-13T07:53:23;99334.20;;;15.50
70533;BMP180;58088;51.186;17.130;2023-03-13T07:55:58;99329.00;;;15.56
70533;BMP180;58088;51.186;17.130;2023-03-13T07:58:30;99339.80;;;15.46
70533;BMP180;58088;51.186;17.130;2023-03-13T08:00:57;99344.20;;;15.42
70533;BMP180;58088;51.186;17.130;2023-03-13T08:03:24;99345.80;;;15.36
70533;BMP180;58088;51.186;17.130;2023-03-13T08:06:03;99346.20;;;15.30
70533;BMP180;58088;51.186;17.130;2023-03-13T08:08:31;99355.60;;;15.20
70533;BMP180;58088;51.186;17.130;2023-03-13T08:11:00;99353.60;;;15.20
70533;BMP180;58088;51.186;17.130;2023-03-13T08:13:27;99348.60;;;15.10
70533;BMP180;58088;51.186;17.130;2023-03-13T08:16:12;99343.20;;;15.10
70533;BMP180;58088;51.186;17.130;2023-03-13T08:18:43;99332.20;;;15.10
70533;BMP180;58088;51.186;17.130;2023-03-13T08:21:16;99339.40;;;15.00
70533;BMP180;58088;51.186;17.130;2023-03-13T08:23:44;99334.40;;;15.00
70533;BMP180;58088;51.186;17.130;2023-03-13T08:26:16;99322.60;;;15.00
70533;BMP180;58088;51.186;17.130;2023-03-13T08:28:45;99322.80;;;15.00
70533;BMP180;58088;51.186;17.130;2023-03-13T08:31:15;99315.00;;;15.00
70533;BMP180;58088;51.186;17.130;2023-03-13T08:33:44;99310.20;;;15.00
70533;BMP180;58088;51.186;17.130;2023-03-13T08:36:35;99295.60;;;15.00
70533;BMP180;58088;51.186;17.130;2023-03-13T08:39:10;99318.80;;;15.00
70533;BMP180;58088;51.186;17.130;2023-03-13T08:41:37;99313.40;;;15.10
70533;BMP180;58088;51.186;17.130;2023-03-13T08:44:07;99306.60;;;15.20
70533;BMP180;58088;51.186;17.130;2023-03-13T08:46:35;99312.80;;;15.10
70533;BMP180;58088;51.186;17.130;2023-03-13T08:49:04;99317.40;;;15.20
70533;BMP180;58088;51.186;17.130;2023-03-13T08:51:30;99302.80;;;15.20
70533;BMP180;58088;51.186;17.130;2023-03-13T08:53:56;99297.40;;;15.22
70533;BMP180;58088;51.186;17.130;2023-03-13T08:56:26;99295.60;;;15.22
70533;BMP180;58088;51.186;17.130;2023-03-13T08:58:57;99289.00;;;15.20
70533;BMP180;58088;51.186;17.130;2023-03-13T09:01:28;99283.00;;;15.10
70533;BMP180;58088;51.186;17.130;2023-03-13T09:03:55;99268.40;;;15.00
70533;BMP180;58088;51.186;17.130;2023-03-13T09:06:22;99281.60;;;15.00
70533;BMP180;58088;51.186;17.130;2023-03-13T09:08:52;99279.20;;;15.10
70533;BMP180;58088;51.186;17.130;2023-03-13T09:11:38;99267.00;;;15.10
70533;BMP180;58088;51.186;17.130;2023-03-13T09:14:06;99264.20;;;15.16
70533;BMP180;58088;51.186;17.130;2023-03-13T09:16:33;99260.40;;;15.20
70533;BMP180;58088;51.186;17.130;2023-03-13T09:19:00;99246.40;;;15.30
70533;BMP180;58088;51.186;17.130;2023-03-13T09:21:30;99240.60;;;15.32
70533;BMP180;58088;51.186;17.130;2023-03-13T09:23:57;99242.00;;;15.40
70533;BMP180;58088;51.186;17.130;2023-03-13T09:26:25;99233.00;;;15.38
70533;BMP180;58088;51.186;17.130;2023-03-13T09:28:53;99223.60;;;15.38
70533;BMP180;58088;51.186;17.130;2023-03-13T09:31:24;99222.20;;;15.40
70533;BMP180;58088;51.186;17.130;2023-03-13T09:33:51;99220.60;;;15.50
70533;BMP180;58088;51.186;17.130;2023-03-13T09:36:19;99215.60;;;15.40
70533;BMP180;58088;51.186;17.130;2023-03-13T09:38:45;99214.00;;;15.50
70533;BMP180;58088;51.186;17.130;2023-03-13T09:44:37;99204.40;;;15.50
70533;BMP180;58088;51.186;17.130;2023-03-13T09:47:18;99206.20;;;15.60
70533;BMP180;58088;51.186;17.130;2023-03-13T09:50:00;99194.80;;;15.60
70533;BMP180;58088;51.186;17.130;2023-03-13T09:52:38;99186.80;;;15.70
70533;BMP180;58088;51.186;17.130;2023-03-13T09:55:20;99172.20;;;15.70
70533;BMP180;58088;51.186;17.130;2023-03-13T09:58:02;99162.20;;;15.60
70533;BMP180;58088;51.186;17.130;2023-03-13T10:00:37;99155.80;;;15.60
70533;BMP180;58088;51.186;17.130;2023-03-13T10:05:57;99146.20;;;15.46
70533;BMP180;58088;51.186;17.130;2023-03-13T10:08:31;99137.40;;;15.50
70533;BMP180;58088;51.186;17.130;2023-03-13T10:11:24;99141.20;;;15.50
70533;BMP180;58088;51.186;17.130;2023-03-13T10:16:34;99140.00;;;15.50
70533;BMP180;58088;51.186;17.130;2023-03-13T10:19:15;99136.60;;;15.50
70533;BMP180;58088;51.186;17.130;2023-03-13T10:21:49;99135.00;;;15.60
70533;BMP180;58088;51.186;17.130;2023-03-13T10:26:59;99128.40;;;15.40
70533;BMP180;58088;51.186;17.130;2023-03-13T10:29:28;99121.00;;;15.30
70533;BMP180;58088;51.186;17.130;2023-03-13T10:32:06;99126.60;;;15.20
70533;BMP180;58088;51.186;17.130;2023-03-13T10:34:56;99120.60;;;15.10
70533;BMP180;58088;51.186;17.130;2023-03-13T10:37:40;99120.20;;;15.00
70533;BMP180;58088;51.186;17.130;2023-03-13T10:40:23;99123.60;;;14.90
70533;BMP180;58088;51.186;17.130;2023-03-13T10:43:00;99109.40;;;14.86
70533;BMP180;58088;51.186;17.130;2023-03-13T10:45:35;99105.80;;;14.80
70533;BMP180;58088;51.186;17.130;2023-03-13T10:48:15;99104.80;;;14.88
70533;BMP180;58088;51.186;17.130;2023-03-13T10:50:49;99104.00;;;14.86
70533;BMP180;58088;51.186;17.130;2023-03-13T10:56:09;99106.00;;;14.70
70533;BMP180;58088;51.186;17.130;2023-03-13T11:01:28;99111.40;;;14.60
70533;BMP180;58088;51.186;17.130;2023-03-13T11:07:04;99123.40;;;14.58
70533;BMP180;58088;51.186;17.130;2023-03-13T11:09:30;99124.40;;;14.50
70533;BMP180;58088;51.186;17.130;2023-03-13T11:12:19;99129.00;;;14.50
70533;BMP180;58088;51.186;17.130;2023-03-13T11:14:45;99126.60;;;14.52
70533;BMP180;58088;51.186;17.130;2023-03-13T11:17:36;99126.20;;;14.50
70533;BMP180;58088;51.186;17.130;2023-03-13T11:23:23;99125.80;;;14.60
70533;BMP180;58088;51.186;17.130;2023-03-13T11:31:43;99116.40;;;14.56
70533;BMP180;58088;51.186;17.130;2023-03-13T11:34:33;99113.00;;;14.58
70533;BMP180;58088;51.186;17.130;2023-03-13T11:37:15;99104.00;;;14.60
70533;BMP180;58088;51.186;17.130;2023-03-13T11:41:03;99097.00;;;14.70
70533;BMP180;58088;51.186;17.130;2023-03-13T11:43:53;99085.40;;;14.80
70533;BMP180;58088;51.186;17.130;2023-03-13T11:47:22;99082.60;;;14.88
70533;BMP180;58088;51.186;17.130;2023-03-13T11:50:29;99077.00;;;14.90
70533;BMP180;58088;51.186;17.130;2023-03-13T11:56:14;99062.60;;;15.00
70533;BMP180;58088;51.186;17.130;2023-03-13T11:59:01;99065.60;;;15.00
70533;BMP180;58088;51.186;17.130;2023-03-13T12:01:39;99069.60;;;15.00
70533;BMP180;58088;51.186;17.130;2023-03-13T12:04:33;99061.00;;;15.00
70533;BMP180;58088;51.186;17.130;2023-03-13T12:07:27;99062.60;;;14.94
70533;BMP180;58088;51.186;17.130;2023-03-13T12:12:44;99063.20;;;15.00
70533;BMP180;58088;51.186;17.130;2023-03-13T12:18:30;99057.80;;;15.10
70533;BMP180;58088;51.186;17.130;2023-03-13T12:23:45;99040.60;;;15.10
70533;BMP180;58088;51.186;17.130;2023-03-13T12:26:18;99037.40;;;15.10
70533;BMP180;58088;51.186;17.130;2023-03-13T12:31:37;99043.00;;;15.04
70533;BMP180;58088;51.186;17.130;2023-03-13T12:34:28;99040.60;;;15.08
70533;BMP180;58088;51.186;17.130;2023-03-13T12:39:37;99040.60;;;15.02
70533;BMP180;58088;51.186;17.130;2023-03-13T12:42:39;99038.00;;;15.10
70533;BMP180;58088;51.186;17.130;2023-03-13T12:45:21;99034.60;;;15.10
70533;BMP180;58088;51.186;17.130;2023-03-13T12:53:50;99003.20;;;15.20
70533;BMP180;58088;51.186;17.130;2023-03-13T12:56:58;99011.20;;;15.30
70533;BMP180;58088;51.186;17.130;2023-03-13T12:59:32;99006.60;;;15.30
70533;BMP180;58088;51.186;17.130;2023-03-13T13:02:00;99003.60;;;15.30
70533;BMP180;58088;51.186;17.130;2023-03-13T13:04:41;99003.40;;;15.30
70533;BMP180;58088;51.186;17.130;2023-03-13T13:10:21;99010.00;;;15.30
70533;BMP180;58088;51.186;17.130;2023-03-13T13:16:04;98998.20;;;15.20
70533;BMP180;58088;51.186;17.130;2023-03-13T13:18:33;98998.40;;;15.20
70533;BMP180;58088;51.186;17.130;2023-03-13T13:23:36;98995.00;;;15.20
70533;BMP180;58088;51.186;17.130;2023-03-13T13:37:00;98983.60;;;15.30
70533;BMP180;58088;51.186;17.130;2023-03-13T13:39:46;98986.40;;;15.30
70533;BMP180;58088;51.186;17.130;2023-03-13T13:44:57;98982.80;;;15.40
70533;BMP180;58088;51.186;17.130;2023-03-13T13:47:27;98982.40;;;15.40
70533;BMP180;58088;51.186;17.130;2023-03-13T13:50:25;98977.80;;;15.40
70533;BMP180;58088;51.186;17.130;2023-03-13T13:52:52;98977.60;;;15.50
70533;BMP180;58088;51.186;17.130;2023-03-13T13:58:12;98968.40;;;15.50
70533;BMP180;58088;51.186;17.130;2023-03-13T14:00:53;98973.60;;;15.50
70533;BMP180;58088;51.186;17.130;2023-03-13T14:03:30;98966.00;;;15.50
70533;BMP180;58088;51.186;17.130;2023-03-13T14:06:27;98966.80;;;15.50
70533;BMP180;58088;51.186;17.130;2023-03-13T14:09:32;98960.80;;;15.60
70533;BMP180;58088;51.186;17.130;2023-03-13T14:11:56;98961.60;;;15.60
70533;BMP180;58088;51.186;17.130;2023-03-13T14:14:22;98965.20;;;15.60
70533;BMP180;58088;51.186;17.130;2023-03-13T14:16:56;98961.60;;;15.70
70533;BMP180;58088;51.186;17.130;2023-03-13T14:19:36;98970.20;;;15.70
70533;BMP180;58088;51.186;17.130;2023-03-13T14:22:07;98979.60;;;15.70
70533;BMP180;58088;51.186;17.130;2023-03-13T14:24:35;98979.00;;;15.70
70533;BMP180;58088;51.186;17.130;2023-03-13T14:27:17;98976.60;;;15.70
70533;BMP180;58088;51.186;17.130;2023-03-13T14:30:05;98977.40;;;15.70
70533;BMP180;58088;51.186;17.130;2023-03-13T14:32:34;98975.00;;;15.72
70533;BMP180;58088;51.186;17.130;2023-03-13T14:35:02;98966.80;;;15.78
70533;BMP180;58088;51.186;17.130;2023-03-13T14:37:46;98968.80;;;15.80
70533;BMP180;58088;51.186;17.130;2023-03-13T14:40:29;98973.20;;;15.80
70533;BMP180;58088;51.186;17.130;2023-03-13T14:42:59;98977.40;;;15.90
70533;BMP180;58088;51.186;17.130;2023-03-13T14:45:30;98971.60;;;15.90
70533;BMP180;58088;51.186;17.130;2023-03-13T14:48:49;98971.60;;;15.94
70533;BMP180;58088;51.186;17.130;2023-03-13T14:51:37;98978.20;;;16.00
70533;BMP180;58088;51.186;17.130;2023-03-13T14:54:00;98968.00;;;16.00
70533;BMP180;58088;51.186;17.130;2023-03-13T14:56:38;98967.60;;;16.10
70533;BMP180;58088;51.186;17.130;2023-03-13T14:59:23;98965.40;;;16.10
70533;BMP180;58088;51.186;17.130;2023-03-13T15:02:12;98970.00;;;16.12
70533;BMP180;58088;51.186;17.130;2023-03-13T15:04:58;98969.00;;;16.20
70533;BMP180;58088;51.186;17.130;2023-03-13T15:07:46;98966.20;;;16.20
70533;BMP180;58088;51.186;17.130;2023-03-13T15:10:34;98961.20;;;16.22
70533;BMP180;58088;51.186;17.130;2023-03-13T15:13:37;98961.20;;;16.30
70533;BMP180;58088;51.186;17.130;2023-03-13T15:16:18;98957.80;;;16.30
70533;BMP180;58088;51.186;17.130;2023-03-13T15:18:46;98955.60;;;16.30
70533;BMP180;58088;51.186;17.130;2023-03-13T15:23:40;98953.40;;;16.36
70533;BMP180;58088;51.186;17.130;2023-03-13T15:26:07;98958.20;;;16.40
70533;BMP180;58088;51.186;17.130;2023-03-13T15:28:33;98955.60;;;16.38
70533;BMP180;58088;51.186;17.130;2023-03-13T15:30:59;98956.40;;;16.30
70533;BMP180;58088;51.186;17.130;2023-03-13T15:33:28;98947.40;;;16.30
70533;BMP180;58088;51.186;17.130;2023-03-13T15:35:55;98937.40;;;16.30
70533;BMP180;58088;51.186;17.130;2023-03-13T15:38:25;98940.00;;;16.30
70533;BMP180;58088;51.186;17.130;2023-03-13T15:40:52;98939.80;;;16.30
70533;BMP180;58088;51.186;17.130;2023-03-13T15:43:21;98937.40;;;16.30
70533;BMP180;58088;51.186;17.130;2023-03-13T15:45:49;98939.20;;;16.22
70533;BMP180;58088;51.186;17.130;2023-03-13T15:48:20;98934.40;;;16.20
70533;BMP180;58088;51.186;17.130;2023-03-13T15:51:01;98934.20;;;16.20
70533;BMP180;58088;51.186;17.130;2023-03-13T15:53:35;98934.20;;;16.20
70533;BMP180;58088;51.186;17.130;2023-03-13T15:56:19;98930.40;;;16.30
70533;BMP180;58088;51.186;17.130;2023-03-13T15:58:46;98920.40;;;16.30
70533;BMP180;58088;51.186;17.130;2023-03-13T16:01:15;98916.60;;;16.30
70533;BMP180;58088;51.186;17.130;2023-03-13T16:03:42;98920.60;;;16.30
70533;BMP180;58088;51.186;17.130;2023-03-13T16:06:15;98910.40;;;16.30